Venice Center, New York
Current Conditions -  °F | °C
As of 6:11 AM on Friday 19 Dec 2014 (Local Time) from KITH Reporting Station
Light Snow Light Snow  
Wind Chill: 14°   Ceiling: 900
Heat Index: 25°   Visibility: 10mi
Dew Point: 23°   Wind: 12mph
Humidity: 93%   Direction: 330°NNW
Pressure: 30.05"   Gusts: NA
Location:  42.7818°N, 76.5651°W
Report Text: KITH 191111Z AUTO 33010KT 10SM -SN OVC009 M04/M05 A3005 RMK AO2 CIG 007V012 SNB1058 P0000
Loading
Personal Weather Stations






























Interactive Weather Map New forecast layout! Learn more

10-Day Weather Forecast

Advertisements
Track Severe Weather on mobile